Time;durP1;ratioP1;P1;durP2;ratioP2;P2;SDS_P1;SDS_P2;PMS_P1;PMS_P2;Temp;Humidity;BMP_temperature;BMP_pressure;BME280_temperature;BME280_humidity;BME280_pressure;Samples;Min_cycle;Max_cycle;Signal;HPM_P1;HPM_P2
2022/07/05 00:01:50;;;;;;;2.22;1.35;;;;;;;-147.11;100.00;61570.13;5040721;28;20415;-59
2022/07/05 00:04:16;;;;;;;4.75;1.40;;;;;;;-147.11;100.00;61570.13;5044499;28;20079;-58
2022/07/05 00:07:17;;;;;;;5.30;1.20;;;;;;;-147.11;100.00;61570.13;5041023;28;20122;-60
2022/07/05 00:09:27;;;;;;;6.15;1.83;;;;;;;-147.11;100.00;61570.13;5045902;28;20044;-62
2022/07/05 00:11:53;;;;;;;3.00;1.30;;;;;;;-147.11;100.00;61570.13;5042265;28;20537;-62
2022/07/05 00:14:19;;;;;;;2.05;1.50;;;;;;;-147.11;100.00;61570.13;5022217;28;20068;-59
2022/07/05 00:16:44;;;;;;;3.42;1.50;;;;;;;-147.11;100.00;61570.13;5038557;28;20404;-60
2022/07/05 00:19:09;;;;;;;5.85;1.55;;;;;;;-147.11;100.00;61570.13;5038956;28;20060;-62
2022/07/05 00:21:35;;;;;;;1.65;1.30;;;;;;;-147.11;100.00;61570.13;5044372;28;20029;-60
2022/07/05 00:24:00;;;;;;;4.03;1.20;;;;;;;-147.11;100.00;61570.13;5039260;28;20029;-57
2022/07/05 00:26:26;;;;;;;3.55;1.30;;;;;;;-147.11;100.00;61570.13;5039696;28;20025;-57
2022/07/05 00:28:51;;;;;;;1.25;1.15;;;;;;;-147.11;100.00;61570.13;5040758;28;20036;-58
2022/07/05 00:31:17;;;;;;;4.18;1.40;;;;;;;-147.11;100.00;61570.13;5037911;28;20037;-59
2022/07/05 00:33:42;;;;;;;4.50;1.40;;;;;;;-147.11;100.00;61570.13;5039785;28;20033;-63
2022/07/05 00:36:08;;;;;;;2.85;1.30;;;;;;;-147.11;100.00;61570.13;5036506;28;20599;-59
2022/07/05 00:38:33;;;;;;;3.55;1.30;;;;;;;-147.11;100.00;61570.13;5044737;28;20029;-58
2022/07/05 00:40:58;;;;;;;6.55;1.52;;;;;;;-147.11;100.00;61570.13;5040140;28;20393;-59
2022/07/05 00:43:24;;;;;;;4.07;2.15;;;;;;;-147.11;100.00;61570.13;5040452;28;20120;-62
2022/07/05 00:45:49;;;;;;;2.90;1.40;;;;;;;-147.11;100.00;61570.13;5042301;28;20032;-59
2022/07/05 00:48:15;;;;;;;3.05;1.70;;;;;;;-147.11;100.00;61570.13;5038971;28;20024;-59
2022/07/05 00:50:41;;;;;;;3.28;1.70;;;;;;;-147.11;100.00;61570.13;5035484;28;20028;-60
2022/07/05 00:53:08;;;;;;;2.78;1.40;;;;;;;-147.11;100.00;61570.13;5041687;28;20040;-58
2022/07/05 00:55:34;;;;;;;2.05;1.40;;;;;;;-147.11;100.00;61570.13;5041886;28;20029;-60
2022/07/05 00:57:59;;;;;;;3.03;1.40;;;;;;;-147.11;100.00;61570.13;5044405;28;20156;-59
2022/07/05 01:00:25;;;;;;;4.93;1.75;;;;;;;-147.11;100.00;61570.13;5036830;28;20044;-59
2022/07/05 01:02:51;;;;;;;3.55;2.03;;;;;;;-147.11;100.00;61570.13;5034375;28;20385;-54
2022/07/05 01:05:17;;;;;;;2.28;1.80;;;;;;;-147.11;100.00;61570.13;5040285;28;20033;-58
2022/07/05 01:07:43;;;;;;;3.22;1.67;;;;;;;-147.11;100.00;61570.13;5040526;28;20022;-57
2022/07/05 01:10:10;;;;;;;4.15;1.60;;;;;;;-147.11;100.00;61570.13;5041347;28;20025;-58
2022/07/05 01:12:39;;;;;;;2.55;1.60;;;;;;;-147.11;100.00;61570.13;5041687;28;20540;-59
2022/07/05 01:15:05;;;;;;;2.28;1.52;;;;;;;-147.11;100.00;61570.13;5040988;28;20028;-61
2022/07/05 01:17:31;;;;;;;1.83;1.60;;;;;;;-147.11;100.00;61570.13;5041287;28;20032;-62
2022/07/05 01:19:56;;;;;;;4.47;1.50;;;;;;;-147.11;100.00;61570.13;5038311;28;20026;-60
2022/07/05 01:22:26;;;;;;;2.10;1.35;;;;;;;-147.11;100.00;61570.13;5043862;28;20400;-56
2022/07/05 01:24:52;;;;;;;2.50;1.60;;;;;;;-147.11;100.00;61570.13;5038204;28;20071;-60
2022/07/05 01:27:19;;;;;;;3.65;1.50;;;;;;;-147.11;100.00;61570.13;5039577;28;20076;-60
2022/07/05 01:29:45;;;;;;;2.63;1.60;;;;;;;-147.11;100.00;61570.13;5034163;28;20029;-57
2022/07/05 01:32:11;;;;;;;3.97;1.70;;;;;;;-147.11;100.00;61570.13;5040170;28;20036;-59
2022/07/05 01:34:38;;;;;;;3.33;1.50;;;;;;;-147.11;100.00;61570.13;5038168;28;20037;-58
2022/07/05 01:37:05;;;;;;;2.38;1.40;;;;;;;-147.11;100.00;61570.13;5041488;28;20055;-59
2022/07/05 01:39:31;;;;;;;1.63;1.50;;;;;;;-147.11;100.00;61570.13;5028912;28;20035;-58
2022/07/05 01:41:56;;;;;;;2.15;1.40;;;;;;;-147.11;100.00;61570.13;5038359;28;20028;-57
2022/07/05 01:44:22;;;;;;;3.55;1.50;;;;;;;-147.11;100.00;61570.13;5036552;28;20388;-59
2022/07/05 01:46:54;;;;;;;3.10;1.48;;;;;;;-147.11;100.00;61570.13;5040077;28;20510;-59
2022/07/05 01:49:21;;;;;;;3.85;1.60;;;;;;;-147.11;100.00;61570.13;5039307;28;20044;-59
2022/07/05 01:52:01;;;;;;;5.85;1.50;;;;;;;-147.11;100.00;61570.13;5036741;28;20029;-58
2022/07/05 01:54:27;;;;;;;2.17;1.50;;;;;;;-147.11;100.00;61570.13;5036279;28;20061;-59
2022/07/05 01:56:53;;;;;;;1.80;1.20;;;;;;;-147.11;100.00;61570.13;5039970;28;20079;-57
2022/07/05 01:59:18;;;;;;;4.13;1.60;;;;;;;-147.11;100.00;61570.13;5035528;28;20030;-57
2022/07/05 02:01:44;;;;;;;2.30;1.50;;;;;;;-147.11;100.00;61570.13;5022414;28;20516;-61
2022/07/05 02:04:10;;;;;;;2.72;1.70;;;;;;;-147.11;100.00;61570.13;5044829;28;20036;-60
2022/07/05 02:06:36;;;;;;;5.90;1.50;;;;;;;-147.11;100.00;61570.13;5040878;28;20507;-62
2022/07/05 02:09:04;;;;;;;2.65;1.60;;;;;;;-147.11;100.00;61570.13;5042786;28;20488;-58
2022/07/05 02:11:29;;;;;;;3.28;1.48;;;;;;;-147.11;100.00;61570.13;5019555;28;20037;-58
2022/07/05 02:13:56;;;;;;;3.10;1.60;;;;;;;-147.11;100.00;61570.13;5025634;28;20383;-59
2022/07/05 02:16:26;;;;;;;2.28;1.40;;;;;;;-147.11;100.00;61570.13;5037631;28;20036;-59
2022/07/05 02:18:51;;;;;;;5.05;1.50;;;;;;;-147.11;100.00;61570.13;5035834;28;20033;-58
2022/07/05 02:21:17;;;;;;;4.85;1.58;;;;;;;-147.11;100.00;61570.13;5036074;28;20044;-55
2022/07/05 02:23:43;;;;;;;1.95;1.40;;;;;;;-147.11;100.00;61570.13;5032824;28;20558;-56
2022/07/05 02:26:08;;;;;;;2.20;1.45;;;;;;;-147.11;100.00;61570.13;5034063;28;20119;-55
2022/07/05 02:28:33;;;;;;;2.50;1.52;;;;;;;-147.11;100.00;61570.13;5040235;28;20037;-65
2022/07/05 02:30:59;;;;;;;3.05;1.30;;;;;;;-147.11;100.00;61570.13;5041890;28;20033;-60
2022/07/05 02:33:24;;;;;;;5.50;1.60;;;;;;;-147.11;100.00;61570.13;5041930;28;20029;-57
2022/07/05 02:35:50;;;;;;;2.05;1.40;;;;;;;-147.11;100.00;61570.13;5048356;28;20408;-58
2022/07/05 02:38:15;;;;;;;4.90;1.52;;;;;;;-147.11;100.00;61570.13;5042833;28;20513;-56
2022/07/05 02:40:41;;;;;;;4.95;1.38;;;;;;;-147.11;100.00;61570.13;5041440;28;20029;-58
2022/07/05 02:43:06;;;;;;;3.83;2.30;;;;;;;-147.11;100.00;61570.13;5042797;28;20041;-59
2022/07/05 02:45:32;;;;;;;6.30;3.20;;;;;;;-147.11;100.00;61570.13;5042647;28;20059;-55
2022/07/05 02:47:57;;;;;;;17.95;14.73;;;;;;;-147.11;100.00;61570.13;5042673;28;20045;-59
2022/07/05 02:50:23;;;;;;;7.07;5.70;;;;;;;-147.11;100.00;61570.13;5048655;22;20120;-58
2022/07/05 02:52:48;;;;;;;6.85;3.30;;;;;;;-147.11;100.00;61570.13;5023233;28;20038;-58
2022/07/05 02:55:14;;;;;;;5.45;3.10;;;;;;;-147.11;100.00;61570.13;5009520;28;20485;-53
2022/07/05 02:57:39;;;;;;;3.10;2.08;;;;;;;-147.11;100.00;61570.13;5016542;28;20021;-54
2022/07/05 03:00:06;;;;;;;4.45;2.45;;;;;;;-147.11;100.00;61570.13;5025422;28;20025;-59
2022/07/05 03:02:31;;;;;;;3.53;2.40;;;;;;;-147.11;100.00;61570.13;5026597;28;20037;-57
2022/07/05 03:04:57;;;;;;;3.60;1.73;;;;;;;-147.11;100.00;61570.13;5027472;28;20043;-54
2022/07/05 03:07:23;;;;;;;6.18;2.03;;;;;;;-147.11;100.00;61570.13;5015974;28;20151;-54
2022/07/05 03:09:48;;;;;;;2.92;1.42;;;;;;;-147.11;100.00;61570.13;5002658;28;20029;-57
2022/07/05 03:12:14;;;;;;;1.65;1.50;;;;;;;-147.11;100.00;61570.13;5019956;28;20029;-56
2022/07/05 03:14:39;;;;;;;2.42;1.40;;;;;;;-147.11;100.00;61570.13;5027338;28;20072;-55
2022/07/05 03:17:05;;;;;;;4.22;1.60;;;;;;;-147.11;100.00;61570.13;5007578;28;20519;-59
2022/07/05 03:19:30;;;;;;;3.67;1.40;;;;;;;-147.11;100.00;61570.13;5013747;28;20492;-60
2022/07/05 03:21:56;;;;;;;2.20;1.52;;;;;;;-147.11;100.00;61570.13;5023817;28;20033;-57
2022/07/05 03:24:21;;;;;;;6.80;1.73;;;;;;;-147.11;100.00;61570.13;5012478;28;20064;-54
2022/07/05 03:26:47;;;;;;;4.80;1.70;;;;;;;-147.11;100.00;61570.13;5024333;28;20042;-57
2022/07/05 03:29:12;;;;;;;2.03;1.40;;;;;;;-147.11;100.00;61570.13;5028624;28;20167;-56
2022/07/05 03:31:37;;;;;;;4.05;1.40;;;;;;;-147.11;100.00;61570.13;5029703;28;20033;-56
2022/07/05 03:34:03;;;;;;;3.63;1.60;;;;;;;-147.11;100.00;61570.13;5012057;28;20670;-56
2022/07/05 03:36:28;;;;;;;3.65;1.50;;;;;;;-147.11;100.00;61570.13;5020584;28;20505;-56
2022/07/05 03:38:54;;;;;;;4.55;1.42;;;;;;;-147.11;100.00;61570.13;5023103;28;20042;-55
2022/07/05 03:41:19;;;;;;;3.30;1.50;;;;;;;-147.11;100.00;61570.13;5010877;28;20041;-60
2022/07/05 03:43:45;;;;;;;6.22;1.58;;;;;;;-147.11;100.00;61570.13;5027434;28;20033;-56
2022/07/05 03:46:10;;;;;;;4.10;2.40;;;;;;;-147.11;100.00;61570.13;5018731;28;20476;-56
2022/07/05 03:48:36;;;;;;;3.15;1.70;;;;;;;-147.11;100.00;61570.13;5008972;28;20475;-56
2022/07/05 03:51:01;;;;;;;7.38;1.88;;;;;;;-147.11;100.00;61570.13;5025117;28;20488;-56
2022/07/05 03:53:27;;;;;;;4.03;1.40;;;;;;;-147.11;100.00;61570.13;5026344;28;20121;-57
2022/07/05 03:55:52;;;;;;;3.78;1.67;;;;;;;-147.11;100.00;61570.13;5020038;28;20112;-57
2022/07/05 03:58:17;;;;;;;3.90;1.70;;;;;;;-147.11;100.00;61570.13;5021774;28;20050;-57
2022/07/05 04:00:43;;;;;;;5.85;1.73;;;;;;;-147.11;100.00;61570.13;5023615;28;20021;-55
2022/07/05 04:03:08;;;;;;;4.65;1.80;;;;;;;-147.11;100.00;61570.13;5001535;28;20034;-56
2022/07/05 04:05:34;;;;;;;3.70;1.30;;;;;;;-147.11;100.00;61570.13;5020597;28;20041;-55
2022/07/05 04:07:59;;;;;;;10.90;2.00;;;;;;;-147.11;100.00;61570.13;5009855;28;20042;-56
2022/07/05 04:10:25;;;;;;;3.22;1.38;;;;;;;-147.11;100.00;61570.13;5021185;28;20496;-56
2022/07/05 04:12:50;;;;;;;4.25;2.05;;;;;;;-147.11;100.00;61570.13;5022981;28;20133;-58
2022/07/05 04:15:16;;;;;;;4.50;2.15;;;;;;;-147.11;100.00;61570.13;5007192;28;20080;-58
2022/07/05 04:17:50;;;;;;;2.70;1.35;;;;;;;-147.11;100.00;61570.13;5029292;28;20075;-56
2022/07/05 04:20:16;;;;;;;4.30;1.60;;;;;;;-147.11;100.00;61570.13;5026778;28;20034;-58
2022/07/05 04:22:42;;;;;;;3.50;1.60;;;;;;;-147.11;100.00;61570.13;5027986;28;20125;-57
2022/07/05 04:25:16;;;;;;;4.13;1.70;;;;;;;-147.11;100.00;61570.13;5026392;28;20029;-55
2022/07/05 04:27:52;;;;;;;3.30;1.60;;;;;;;-147.11;100.00;61570.13;5027414;28;20025;-58
2022/07/05 04:30:19;;;;;;;4.18;1.50;;;;;;;-147.11;100.00;61570.13;5022697;28;20025;-56
2022/07/05 04:32:45;;;;;;;5.47;1.63;;;;;;;-147.11;100.00;61570.13;5023463;28;20042;-58
2022/07/05 04:35:12;;;;;;;2.63;1.40;;;;;;;-147.11;100.00;61570.13;5024782;28;20038;-57
2022/07/05 04:37:38;;;;;;;3.53;1.55;;;;;;;-147.11;100.00;61570.13;5025043;28;20048;-56
2022/07/05 04:40:05;;;;;;;2.72;1.58;;;;;;;-147.11;100.00;61570.13;5022153;28;20030;-58
2022/07/05 04:42:31;;;;;;;5.80;1.98;;;;;;;-147.11;100.00;61570.13;5025802;28;20034;-57
2022/07/05 04:44:57;;;;;;;6.28;1.95;;;;;;;-147.11;100.00;61570.13;5024419;28;20021;-57
2022/07/05 04:47:22;;;;;;;5.43;1.77;;;;;;;-147.11;100.00;61570.13;5018594;28;20030;-57
2022/07/05 04:49:48;;;;;;;3.47;1.70;;;;;;;-147.11;100.00;61570.13;5014825;28;20034;-57
2022/07/05 04:52:13;;;;;;;4.35;1.80;;;;;;;-147.11;100.00;61570.13;5018726;28;20072;-56
2022/07/05 04:54:39;;;;;;;4.88;1.50;;;;;;;-147.11;100.00;61570.13;5017239;28;20112;-58
2022/07/05 04:57:04;;;;;;;7.22;1.92;;;;;;;-147.11;100.00;61570.13;5018616;28;20037;-57
2022/07/05 04:59:30;;;;;;;2.53;1.60;;;;;;;-147.11;100.00;61570.13;5021276;28;20369;-57
2022/07/05 05:01:55;;;;;;;2.30;1.52;;;;;;;-147.11;100.00;61570.13;5019813;28;20120;-55
2022/07/05 05:04:21;;;;;;;4.07;2.42;;;;;;;-147.11;100.00;61570.13;5022837;28;20484;-57
2022/07/05 05:06:47;;;;;;;5.55;1.90;;;;;;;-147.11;100.00;61570.13;5021254;28;20054;-56
2022/07/05 05:09:13;;;;;;;3.30;1.58;;;;;;;-147.11;100.00;61570.13;5022352;28;20033;-55
2022/07/05 05:11:38;;;;;;;5.15;1.60;;;;;;;-147.11;100.00;61570.13;5022567;28;20026;-55
2022/07/05 05:14:03;;;;;;;3.92;1.40;;;;;;;-147.11;100.00;61570.13;5023841;28;20022;-56
2022/07/05 05:16:29;;;;;;;5.70;1.50;;;;;;;-147.11;100.00;61570.13;5019363;28;20116;-55
2022/07/05 05:18:55;;;;;;;3.45;1.38;;;;;;;-147.11;100.00;61570.13;5024337;28;20369;-56
2022/07/05 05:21:20;;;;;;;4.22;1.30;;;;;;;-147.11;100.00;61570.13;5015483;28;20092;-56
2022/07/05 05:23:46;;;;;;;3.88;1.50;;;;;;;-147.11;100.00;61570.13;5019487;28;20392;-56
2022/07/05 05:26:11;;;;;;;4.30;1.55;;;;;;;-147.11;100.00;61570.13;5023057;28;20065;-57
2022/07/05 05:28:37;;;;;;;5.43;2.13;;;;;;;-147.11;100.00;61570.13;5006776;28;20128;-59
2022/07/05 05:31:02;;;;;;;7.88;1.50;;;;;;;-147.11;100.00;61570.13;5022284;28;20029;-57
2022/07/05 05:33:28;;;;;;;3.88;1.73;;;;;;;-147.11;100.00;61570.13;5020775;28;20029;-58
2022/07/05 05:35:53;;;;;;;6.07;1.27;;;;;;;-147.11;100.00;61570.13;5026707;28;20057;-60
2022/07/05 05:38:19;;;;;;;6.47;1.40;;;;;;;-147.11;100.00;61570.13;5022814;28;20573;-57
2022/07/05 05:40:44;;;;;;;4.93;1.30;;;;;;;-147.11;100.00;61570.13;5023612;28;20438;-56
2022/07/05 05:43:11;;;;;;;5.93;1.33;;;;;;;-147.11;100.00;61570.13;5013156;28;20049;-56
2022/07/05 05:45:37;;;;;;;2.35;1.10;;;;;;;-147.11;100.00;61570.13;5019894;28;20113;-57
2022/07/05 05:48:02;;;;;;;3.90;1.30;;;;;;;-147.11;100.00;61570.13;5024030;28;20190;-58
2022/07/05 05:50:33;;;;;;;2.78;1.20;;;;;;;-147.11;100.00;61570.13;5022729;28;20037;-56
2022/07/05 05:53:10;;;;;;;4.50;1.15;;;;;;;-147.11;100.00;61570.13;5019594;28;20033;-55
2022/07/05 05:55:38;;;;;;;2.63;1.38;;;;;;;-147.11;100.00;61570.13;4997913;28;20037;-57
2022/07/05 05:58:16;;;;;;;5.07;2.70;;;;;;;-147.11;100.00;61570.13;5018235;28;20598;-54
2022/07/05 06:00:42;;;;;;;3.83;1.20;;;;;;;-147.11;100.00;61570.13;5021757;28;20551;-56
2022/07/05 06:03:08;;;;;;;4.53;1.20;;;;;;;-147.11;100.00;61570.13;5022678;28;20038;-58
2022/07/05 06:05:34;;;;;;;1.50;1.02;;;;;;;-147.11;100.00;61570.13;5020853;28;20032;-58
2022/07/05 06:07:59;;;;;;;4.22;1.20;;;;;;;-147.11;100.00;61570.13;5017644;28;20037;-59
2022/07/05 06:10:29;;;;;;;3.47;1.20;;;;;;;-147.11;100.00;61570.13;5018352;28;20059;-61
2022/07/05 06:12:58;;;;;;;6.07;1.23;;;;;;;-147.11;100.00;61570.13;5022195;28;20040;-62
2022/07/05 06:15:23;;;;;;;4.63;1.30;;;;;;;-147.11;100.00;61570.13;5021788;28;20040;-56
2022/07/05 06:17:49;;;;;;;5.13;0.95;;;;;;;-147.11;100.00;61570.13;5016749;28;20021;-57
2022/07/05 06:20:26;;;;;;;3.17;1.10;;;;;;;-147.11;100.00;61570.13;5024511;28;20522;-58
2022/07/05 06:22:53;;;;;;;2.58;1.17;;;;;;;-147.11;100.00;61570.13;5027989;28;20051;-58
2022/07/05 06:25:18;;;;;;;3.53;0.80;;;;;;;-147.11;100.00;61570.13;5029262;28;20037;-55
2022/07/05 06:27:54;;;;;;;2.13;1.10;;;;;;;-147.11;100.00;61570.13;5023639;28;20073;-58
2022/07/05 06:30:34;;;;;;;6.10;1.25;;;;;;;-147.11;100.00;61570.13;5029190;28;20393;-58
2022/07/05 06:33:00;;;;;;;2.60;1.08;;;;;;;-147.11;100.00;61570.13;5020872;28;20070;-54
2022/07/05 06:35:38;;;;;;;3.03;1.13;;;;;;;-147.11;100.00;61570.13;5019277;28;20287;-54
2022/07/05 06:38:06;;;;;;;4.30;1.10;;;;;;;-147.11;100.00;61570.13;5023831;28;20029;-56
2022/07/05 06:40:34;;;;;;;2.72;1.08;;;;;;;-147.11;100.00;61570.13;5011360;28;20033;-56
2022/07/05 06:43:02;;;;;;;3.85;0.93;;;;;;;-147.11;100.00;61570.13;5023590;28;20026;-54
2022/07/05 06:45:28;;;;;;;2.45;1.10;;;;;;;-147.11;100.00;61570.13;5030179;28;20025;-54
2022/07/05 06:47:57;;;;;;;1.65;1.02;;;;;;;-147.11;100.00;61570.13;5028864;28;20029;-54
2022/07/05 06:50:23;;;;;;;5.07;1.20;;;;;;;-147.11;100.00;61570.13;5020300;28;20488;-57
2022/07/05 06:52:49;;;;;;;2.55;0.90;;;;;;;-147.11;100.00;61570.13;5027113;28;20064;-57
2022/07/05 06:55:14;;;;;;;2.53;1.20;;;;;;;-147.11;100.00;61570.13;5015488;28;20686;-56
2022/07/05 06:57:40;;;;;;;4.00;1.30;;;;;;;-147.11;100.00;61570.13;5022114;28;20021;-54
2022/07/05 07:00:06;;;;;;;2.80;1.23;;;;;;;-147.11;100.00;61570.13;5019030;28;20470;-56
2022/07/05 07:02:32;;;;;;;2.47;1.20;;;;;;;-147.11;100.00;61570.13;5023631;28;20029;-55
2022/07/05 07:04:57;;;;;;;1.63;1.10;;;;;;;-147.11;100.00;61570.13;5023893;28;20041;-54
2022/07/05 07:10:07;;;;;;;2.67;1.20;;;;;;;-147.11;100.00;61570.13;5027364;28;21009;-56
2022/07/05 07:12:33;;;;;;;3.55;1.20;;;;;;;-147.11;100.00;61570.13;5022517;28;20049;-58
2022/07/05 07:14:58;;;;;;;3.58;1.20;;;;;;;-147.11;100.00;61570.13;5033250;28;20033;-54
2022/07/05 07:17:24;;;;;;;2.92;1.10;;;;;;;-147.11;100.00;61570.13;5032940;28;20037;-54
2022/07/05 07:19:50;;;;;;;2.47;1.13;;;;;;;-147.11;100.00;61570.13;5031883;28;20037;-54
2022/07/05 07:22:16;;;;;;;2.33;1.25;;;;;;;-147.11;100.00;61570.13;5031950;28;20040;-54
2022/07/05 07:24:41;;;;;;;3.20;0.90;;;;;;;-147.11;100.00;61570.13;5028800;28;20022;-55
2022/07/05 07:27:07;;;;;;;2.97;1.17;;;;;;;-147.11;100.00;61570.13;5024711;28;20033;-56
2022/07/05 07:29:38;;;;;;;3.88;1.00;;;;;;;-147.11;100.00;61570.13;5029002;28;20076;-56
2022/07/05 07:32:05;;;;;;;2.85;1.00;;;;;;;-147.11;100.00;61570.13;5025884;28;20018;-55
2022/07/05 07:34:32;;;;;;;2.90;1.20;;;;;;;-147.11;100.00;61570.13;5025788;28;20034;-56
2022/07/05 07:36:57;;;;;;;3.45;1.00;;;;;;;-147.11;100.00;61570.13;5021957;28;20029;-56
2022/07/05 07:39:24;;;;;;;4.85;1.10;;;;;;;-147.11;100.00;61570.13;5027104;28;20037;-55
2022/07/05 07:41:50;;;;;;;3.33;1.40;;;;;;;-147.11;100.00;61570.13;5027343;28;20485;-59
2022/07/05 07:44:15;;;;;;;5.13;1.40;;;;;;;-147.11;100.00;61570.13;5027875;28;20048;-54
2022/07/05 07:46:41;;;;;;;3.53;1.13;;;;;;;-147.11;100.00;61570.13;5028814;28;20115;-54
2022/07/05 07:49:08;;;;;;;1.63;1.00;;;;;;;-147.11;100.00;61570.13;5031904;28;20029;-55
2022/07/05 07:51:33;;;;;;;3.28;1.20;;;;;;;-147.11;100.00;61570.13;5026778;28;20104;-54
2022/07/05 07:53:59;;;;;;;2.47;1.17;;;;;;;-147.11;100.00;61570.13;5023366;28;20033;-54
2022/07/05 07:56:25;;;;;;;3.22;1.83;;;;;;;-147.11;100.00;61570.13;5030834;28;20370;-55
2022/07/05 07:58:51;;;;;;;2.70;1.20;;;;;;;-147.11;100.00;61570.13;5027132;28;20500;-57
2022/07/05 08:01:16;;;;;;;3.50;1.20;;;;;;;-147.11;100.00;61570.13;5025260;28;20060;-55
2022/07/05 08:03:42;;;;;;;2.35;1.27;;;;;;;-147.11;100.00;61570.13;5023707;28;20026;-54
2022/07/05 08:06:08;;;;;;;4.10;1.30;;;;;;;-147.11;100.00;61570.13;5030936;28;20393;-54
2022/07/05 08:08:34;;;;;;;2.78;1.08;;;;;;;-147.11;100.00;61570.13;5019894;28;20481;-54
2022/07/05 08:11:00;;;;;;;3.55;1.20;;;;;;;-147.11;100.00;61570.13;5024332;28;20049;-56
2022/07/05 08:13:26;;;;;;;4.38;1.20;;;;;;;-147.11;100.00;61570.13;5020998;28;20035;-54
2022/07/05 08:15:52;;;;;;;5.95;1.20;;;;;;;-147.11;100.00;61570.13;5027897;28;20037;-54
2022/07/05 08:23:45;;;;;;;3.88;1.30;;;;;;;-147.11;100.00;61570.13;5024538;28;20048;-54
2022/07/05 08:26:11;;;;;;;3.25;1.40;;;;;;;-147.11;100.00;61570.13;5025124;28;20034;-54
2022/07/05 08:28:36;;;;;;;2.65;1.10;;;;;;;-147.11;100.00;61570.13;5021392;28;20033;-57
2022/07/05 08:31:02;;;;;;;2.42;1.20;;;;;;;-147.11;100.00;61570.13;5029092;28;20033;-54
2022/07/05 08:33:27;;;;;;;3.50;1.30;;;;;;;-147.11;100.00;61570.13;5026805;28;20033;-55
2022/07/05 08:35:53;;;;;;;2.75;1.33;;;;;;;-147.11;100.00;61570.13;5024141;28;20029;-54
2022/07/05 08:38:18;;;;;;;2.53;1.15;;;;;;;-147.11;100.00;61570.13;5026462;28;20038;-54
2022/07/05 08:40:47;;;;;;;3.28;1.13;;;;;;;-147.11;100.00;61570.13;5021778;28;20034;-56
2022/07/05 08:43:14;;;;;;;3.33;1.08;;;;;;;-147.11;100.00;61570.13;5030626;28;20113;-54
2022/07/05 08:45:43;;;;;;;3.03;1.10;;;;;;;-147.11;100.00;61570.13;5029864;28;20029;-56
2022/07/05 08:48:09;;;;;;;2.45;1.13;;;;;;;-147.11;100.00;61570.13;5023958;28;20080;-55
2022/07/05 08:50:37;;;;;;;3.40;1.40;;;;;;;-147.11;100.00;61570.13;5012224;28;20033;-54
2022/07/05 08:53:03;;;;;;;5.78;1.20;;;;;;;-147.11;100.00;61570.13;5025732;28;20045;-57
2022/07/05 08:55:31;;;;;;;1.98;0.98;;;;;;;-147.11;100.00;61570.13;5029798;28;20038;-53
2022/07/05 08:57:56;;;;;;;3.45;1.30;;;;;;;-147.11;100.00;61570.13;5025610;28;20029;-53
2022/07/05 09:00:22;;;;;;;4.35;1.40;;;;;;;-147.11;100.00;61570.13;5025344;28;20076;-57
2022/07/05 09:02:50;;;;;;;3.72;1.30;;;;;;;-147.11;100.00;61570.13;5028180;28;20091;-54
2022/07/05 09:05:18;;;;;;;3.50;1.27;;;;;;;-147.11;100.00;61570.13;5028749;28;20052;-54
2022/07/05 09:07:52;;;;;;;3.92;1.30;;;;;;;-147.11;100.00;61570.13;5023545;28;20083;-56
2022/07/05 09:10:21;;;;;;;2.67;1.40;;;;;;;-147.11;100.00;61570.13;5029179;28;20064;-53
2022/07/05 09:12:47;;;;;;;1.52;1.20;;;;;;;-147.11;100.00;61570.13;5032215;28;20030;-57
2022/07/05 09:15:12;;;;;;;4.50;1.50;;;;;;;-147.11;100.00;61570.13;5030926;28;20056;-53
2022/07/05 09:17:45;;;;;;;2.95;1.40;;;;;;;-147.11;100.00;61570.13;5027591;28;20030;-55
2022/07/05 09:20:13;;;;;;;3.70;1.45;;;;;;;-147.11;100.00;61570.13;5029100;28;20120;-56
2022/07/05 09:22:53;;;;;;;6.43;1.45;;;;;;;-147.11;100.00;61570.13;5018865;28;20520;-56
2022/07/05 09:25:24;;;;;;;;;;;;;;;-147.11;100.00;61570.13;5026633;28;20045;-54
2022/07/05 09:28:02;;;;;;;4.95;1.50;;;;;;;-147.11;100.00;61570.13;5029942;28;20366;-54
2022/07/05 09:30:39;;;;;;;9.23;1.45;;;;;;;-147.11;100.00;61570.13;5030050;28;20083;-54
2022/07/05 09:33:14;;;;;;;2.85;1.20;;;;;;;-147.11;100.00;61570.13;5022257;28;20043;-55
2022/07/05 09:35:42;;;;;;;4.18;1.67;;;;;;;-147.11;100.00;61570.13;5005511;28;20034;-54
2022/07/05 09:38:22;;;;;;;2.92;1.38;;;;;;;-147.11;100.00;61570.13;5028884;28;20025;-58
2022/07/05 09:40:57;;;;;;;1.70;1.30;;;;;;;-147.11;100.00;61570.13;5023283;28;20036;-55
2022/07/05 09:43:25;;;;;;;2.17;1.33;;;;;;;-147.11;100.00;61570.13;5027224;28;20041;-54
2022/07/05 09:46:00;;;;;;;2.65;1.50;;;;;;;-147.11;100.00;61570.13;5029456;28;20033;-59
2022/07/05 09:48:27;;;;;;;3.78;1.70;;;;;;;-147.11;100.00;61570.13;5024637;28;20061;-57
2022/07/05 09:51:04;;;;;;;2.95;1.50;;;;;;;-147.11;100.00;61570.13;5022791;28;20013;-54
2022/07/05 09:53:50;;;;;;;5.60;1.50;;;;;;;-147.11;100.00;61570.13;5021893;28;20038;-54
2022/07/05 09:56:17;;;;;;;3.38;1.50;;;;;;;-147.11;100.00;61570.13;5032049;28;20032;-58
2022/07/05 09:58:43;;;;;;;2.55;1.50;;;;;;;-147.11;100.00;61570.13;5026176;28;20488;-54
2022/07/05 10:01:31;;;;;;;2.70;1.50;;;;;;;-147.11;100.00;61570.13;5025137;28;20025;-54
2022/07/05 10:04:02;;;;;;;6.00;1.60;;;;;;;-147.11;100.00;61570.13;5025526;28;20122;-55
2022/07/05 10:06:31;;;;;;;4.53;1.40;;;;;;;-147.11;100.00;61570.13;5020642;28;20500;-53
2022/07/05 10:08:56;;;;;;;3.90;1.42;;;;;;;-147.11;100.00;61570.13;5022456;28;20396;-54
2022/07/05 10:11:26;;;;;;;2.45;1.40;;;;;;;-147.11;100.00;61570.13;5030208;28;20519;-54
2022/07/05 10:13:54;;;;;;;3.30;1.30;;;;;;;-147.11;100.00;61570.13;5029554;28;20025;-57
2022/07/05 10:16:22;;;;;;;6.20;1.63;;;;;;;-147.11;100.00;61570.13;5027878;28;20104;-53
2022/07/05 10:18:54;;;;;;;2.55;1.30;;;;;;;-147.11;100.00;61570.13;5025646;28;20037;-54
2022/07/05 10:21:20;;;;;;;3.13;1.42;;;;;;;-147.11;100.00;61570.13;5025944;28;20036;-54
2022/07/05 10:23:56;;;;;;;1.77;1.40;;;;;;;-147.11;100.00;61570.13;5024146;28;20037;-53
2022/07/05 10:26:23;;;;;;;3.17;1.40;;;;;;;-147.11;100.00;61570.13;5026783;28;20427;-53
2022/07/05 10:28:52;;;;;;;3.45;1.40;;;;;;;-147.11;100.00;61570.13;5028660;28;20034;-54
2022/07/05 10:31:18;;;;;;;3.70;1.40;;;;;;;-147.11;100.00;61570.13;5026300;28;20026;-54
2022/07/05 10:33:45;;;;;;;3.60;1.40;;;;;;;-147.11;100.00;61570.13;5022914;28;20644;-54
2022/07/05 10:36:12;;;;;;;6.40;1.27;;;;;;;-147.11;100.00;61570.13;5023439;28;20025;-54
2022/07/05 10:38:41;;;;;;;6.78;1.50;;;;;;;-147.11;100.00;61570.13;5023835;28;20049;-54
2022/07/05 10:41:10;;;;;;;3.47;1.30;;;;;;;-147.11;100.00;61570.13;5024678;28;20033;-56
2022/07/05 10:43:35;;;;;;;3.38;1.30;;;;;;;-147.11;100.00;61570.13;5029454;28;20025;-54
2022/07/05 10:46:02;;;;;;;3.20;1.30;;;;;;;-147.11;100.00;61570.13;5029503;28;20038;-54
2022/07/05 10:48:28;;;;;;;5.30;1.70;;;;;;;-147.11;100.00;61570.13;5027994;28;20450;-54
2022/07/05 10:51:14;;;;;;;2.15;1.33;;;;;;;-147.11;100.00;61570.13;5025299;28;20035;-55
2022/07/05 10:53:39;;;;;;;3.47;1.40;;;;;;;-147.11;100.00;61570.13;5025886;28;20040;-53
2022/07/05 10:56:04;;;;;;;3.45;1.25;;;;;;;-147.11;100.00;61570.13;5033512;28;20021;-54
2022/07/05 10:58:48;;;;;;;5.65;1.40;;;;;;;-147.11;100.00;61570.13;5033509;28;20075;-54
2022/07/05 11:01:19;;;;;;;4.75;1.38;;;;;;;-147.11;100.00;61570.13;5028905;28;20041;-56
2022/07/05 11:03:55;;;;;;;3.50;1.20;;;;;;;-147.11;100.00;61570.13;5026906;28;20025;-53
2022/07/05 11:06:21;;;;;;;2.78;1.30;;;;;;;-147.11;100.00;61570.13;5027170;28;20520;-54
2022/07/05 11:08:59;;;;;;;4.28;1.30;;;;;;;-147.11;100.00;61570.13;5021381;28;20041;-58
2022/07/05 11:11:29;;;;;;;3.85;1.17;;;;;;;-147.11;100.00;61570.13;5020331;28;20026;-57
2022/07/05 11:13:58;;;;;;;4.80;1.40;;;;;;;-147.11;100.00;61570.13;5020319;28;20142;-56
2022/07/05 11:16:30;;;;;;;2.37;1.30;;;;;;;-147.11;100.00;61570.13;5025979;28;20481;-53
2022/07/05 11:19:16;;;;;;;1.77;1.10;;;;;;;-147.11;100.00;61570.13;5025663;28;20034;-53